createdAt,value
2019-05-13T00:01:45.150Z,61.70
2019-05-13T00:04:14.683Z,61.81
2019-05-13T00:06:53.537Z,62.10
2019-05-13T00:09:16.522Z,62.41
2019-05-13T00:11:46.050Z,63.00
2019-05-13T00:14:15.605Z,63.56
2019-05-13T00:16:45.482Z,63.79
2019-05-13T00:19:15.113Z,63.81
2019-05-13T00:21:44.693Z,63.82
2019-05-13T00:24:14.620Z,63.96
2019-05-13T00:26:44.612Z,64.11
2019-05-13T00:29:14.652Z,64.39
2019-05-13T00:31:44.318Z,64.75
2019-05-13T00:34:14.403Z,64.99
2019-05-13T00:36:44.641Z,65.12
2019-05-13T00:39:15.279Z,65.15
2019-05-13T00:41:45.124Z,65.09
2019-05-13T00:44:14.668Z,65.14
2019-05-13T00:46:45.018Z,65.26
2019-05-13T00:49:14.551Z,65.55
2019-05-13T00:51:44.615Z,65.77
2019-05-13T00:54:14.254Z,65.79
2019-05-13T00:56:43.868Z,65.95
2019-05-13T00:59:14.226Z,66.01
2019-05-13T01:01:44.214Z,66.11
2019-05-13T01:04:14.327Z,66.12
2019-05-13T01:06:44.144Z,66.24
2019-05-13T01:09:14.491Z,66.42
2019-05-13T01:11:44.182Z,66.57
2019-05-13T01:14:14.308Z,66.79
2019-05-13T01:16:44.491Z,67.03
2019-05-13T01:19:14.503Z,67.22
2019-05-13T01:21:44.594Z,67.31
2019-05-13T01:24:14.641Z,67.44
2019-05-13T01:26:44.210Z,67.66
2019-05-13T01:29:13.761Z,67.74
2019-05-13T01:31:43.617Z,67.81
2019-05-13T01:34:14.297Z,67.87
2019-05-13T01:36:44.624Z,67.92
2019-05-13T01:39:14.351Z,68.23
2019-05-13T01:41:43.993Z,68.45
2019-05-13T01:44:13.963Z,68.67
2019-05-13T01:46:43.918Z,68.79
2019-05-13T01:49:13.803Z,68.97
2019-05-13T01:51:44.047Z,69.11
2019-05-13T01:54:14.280Z,69.22
2019-05-13T01:56:44.266Z,69.25
2019-05-13T01:59:15.162Z,69.21
2019-05-13T02:01:45.036Z,69.16
2019-05-13T02:04:14.594Z,69.12
2019-05-13T02:06:44.512Z,69.04
2019-05-13T02:09:15.082Z,69.03
2019-05-13T02:11:46.714Z,69.00
2019-05-13T02:14:15.991Z,69.13
2019-05-13T02:16:45.555Z,69.39
2019-05-13T02:19:15.077Z,69.58
2019-05-13T02:21:44.814Z,69.80
2019-05-13T02:24:14.601Z,69.96
2019-05-13T02:26:44.174Z,70.15
2019-05-13T02:29:14.475Z,70.09
2019-05-13T02:31:51.084Z,70.07
2019-05-13T02:34:15.368Z,70.08
2019-05-13T02:36:44.918Z,70.13
2019-05-13T02:39:14.460Z,70.33
2019-05-13T02:41:44.127Z,70.52
2019-05-13T02:44:13.656Z,70.82
2019-05-13T02:46:44.533Z,70.88
2019-05-13T02:49:14.267Z,70.85
2019-05-13T02:51:43.880Z,70.82
2019-05-13T02:54:13.430Z,70.82
2019-05-13T02:56:43.395Z,70.95
2019-05-13T02:59:13.531Z,71.19
2019-05-13T03:01:43.397Z,71.35
2019-05-13T03:04:13.526Z,71.59
2019-05-13T03:06:43.638Z,71.68
2019-05-13T03:09:13.392Z,71.75
2019-05-13T03:11:42.953Z,71.84
2019-05-13T03:14:13.560Z,71.83
2019-05-13T03:16:44.754Z,71.79
2019-05-13T03:19:14.305Z,71.81
2019-05-13T03:21:44.911Z,71.97
2019-05-13T03:24:14.474Z,72.11
2019-05-13T03:26:44.004Z,72.28
2019-05-13T03:29:13.557Z,72.54
2019-05-13T03:31:46.426Z,72.65
2019-05-13T03:34:16.288Z,72.72
2019-05-13T03:36:46.816Z,72.62
2019-05-13T03:39:16.960Z,72.57
2019-05-13T03:41:52.866Z,72.52
2019-05-13T03:44:24.330Z,72.81
2019-05-13T03:46:55.036Z,73.03
2019-05-13T03:49:27.919Z,73.08
2019-05-13T03:51:58.233Z,73.21
2019-05-13T03:54:28.412Z,73.25
2019-05-13T03:56:57.999Z,73.39
2019-05-13T03:59:27.564Z,73.41
2019-05-13T04:01:57.549Z,73.44
2019-05-13T04:04:27.110Z,73.56
2019-05-13T04:06:56.654Z,73.66
2019-05-13T04:09:31.471Z,73.59
2019-05-13T04:11:57.637Z,73.49
2019-05-13T04:14:27.180Z,73.50
2019-05-13T04:16:56.786Z,73.62
2019-05-13T04:19:26.339Z,73.80
2019-05-13T04:21:55.862Z,73.99
2019-05-13T04:24:25.414Z,73.99
2019-05-13T04:26:55.015Z,73.99
2019-05-13T04:29:24.732Z,73.98
2019-05-13T04:31:54.529Z,74.10
2019-05-13T04:34:24.163Z,74.24
2019-05-13T04:36:54.739Z,74.29
2019-05-13T04:39:39.664Z,74.34
2019-05-13T04:41:55.912Z,74.41
2019-05-13T04:44:25.493Z,74.43
2019-05-13T04:46:55.132Z,74.35
2019-05-13T04:49:24.845Z,74.36
2019-05-13T04:51:54.507Z,74.32
2019-05-13T04:54:24.035Z,74.31
2019-05-13T04:56:53.780Z,74.25
2019-05-13T04:59:23.359Z,74.26
2019-05-13T05:02:36.715Z,74.35
2019-05-13T05:05:34.348Z,74.30
2019-05-13T05:08:32.703Z,74.06
2019-05-13T05:11:25.707Z,73.63
2019-05-13T05:14:24.017Z,73.37
2019-05-13T05:17:32.821Z,73.22
2019-05-13T05:20:13.028Z,72.95
2019-05-13T05:23:14.774Z,72.44
2019-05-13T05:26:04.056Z,72.11
2019-05-13T05:29:04.528Z,71.66
2019-05-13T05:32:06.046Z,71.61
2019-05-13T05:35:14.981Z,71.84
2019-05-13T05:38:12.096Z,72.02
2019-05-13T05:40:44.972Z,71.82
2019-05-13T05:43:17.059Z,71.83
2019-05-13T05:45:46.706Z,71.81
2019-05-13T05:48:18.462Z,71.82
2019-05-13T05:50:51.455Z,71.72
2019-05-13T05:53:23.918Z,71.42
2019-05-13T05:55:55.067Z,71.17
2019-05-13T05:58:24.729Z,70.76
2019-05-13T06:00:56.584Z,70.25
2019-05-13T06:03:27.824Z,70.30
2019-05-13T06:05:57.629Z,70.23
2019-05-13T06:08:27.322Z,70.08
2019-05-13T06:10:56.874Z,69.17
2019-05-13T06:13:26.401Z,68.46
2019-05-13T06:15:56.001Z,67.54
2019-05-13T06:18:25.829Z,66.51
2019-05-13T06:20:55.537Z,64.94
2019-05-13T06:23:25.104Z,64.44
2019-05-13T06:25:54.652Z,64.15
2019-05-13T06:28:24.571Z,63.34
2019-05-13T06:30:54.189Z,62.89
2019-05-13T06:33:25.000Z,62.05
2019-05-13T06:35:55.093Z,61.36
2019-05-13T06:38:24.707Z,60.43
2019-05-13T06:41:02.651Z,59.40
2019-05-13T06:43:25.651Z,58.87
2019-05-13T06:45:55.230Z,57.55
2019-05-13T06:48:24.781Z,57.59
2019-05-13T06:50:54.419Z,57.29
2019-05-13T06:53:23.992Z,57.11
2019-05-13T06:55:53.532Z,56.44
2019-05-13T06:58:23.087Z,55.87
2019-05-13T07:00:57.341Z,55.72
2019-05-13T07:03:23.902Z,55.48
2019-05-13T07:05:53.463Z,54.96
2019-05-13T07:08:23.199Z,55.38
2019-05-13T07:10:52.817Z,56.28
2019-05-13T07:13:22.361Z,56.41
2019-05-13T07:15:52.313Z,56.03
2019-05-13T07:18:22.076Z,55.83
2019-05-13T07:20:53.020Z,55.77
2019-05-13T07:23:22.907Z,55.00
2019-05-13T07:25:52.812Z,54.55
2019-05-13T07:28:22.592Z,55.05
2019-05-13T07:30:52.134Z,55.04
2019-05-13T07:33:21.770Z,54.68
2019-05-13T07:35:58.127Z,54.68
2019-05-13T07:38:26.024Z,54.22
2019-05-13T07:41:04.278Z,53.46
2019-05-13T07:43:33.985Z,53.55
2019-05-13T07:46:03.562Z,54.25
2019-05-13T07:48:33.195Z,54.07
2019-05-13T07:51:04.544Z,54.05
2019-05-13T07:53:37.696Z,53.33
2019-05-13T07:56:07.290Z,52.64
2019-05-13T07:58:37.799Z,53.71
2019-05-13T08:01:07.373Z,53.98
2019-05-13T08:03:37.009Z,53.31
2019-05-13T08:06:06.557Z,52.55
2019-05-13T08:08:36.176Z,51.23
2019-05-13T08:11:06.068Z,50.38
2019-05-13T08:13:35.646Z,50.51
2019-05-13T08:16:05.190Z,50.71
2019-05-13T08:18:34.776Z,51.41
2019-05-13T08:21:04.418Z,51.63
2019-05-13T08:23:34.245Z,50.59
2019-05-13T08:26:03.876Z,49.59
2019-05-13T08:28:33.480Z,47.62
2019-05-13T08:31:03.156Z,47.14
2019-05-13T08:33:32.889Z,46.76
2019-05-13T08:36:02.461Z,46.85
2019-05-13T08:38:32.241Z,46.70
2019-05-13T08:41:02.206Z,46.06
2019-05-13T08:43:32.081Z,44.95
2019-05-13T08:46:02.720Z,44.82
2019-05-13T08:48:32.546Z,45.14
2019-05-13T08:51:03.061Z,44.72
2019-05-13T08:53:33.015Z,43.85
2019-05-13T08:56:02.773Z,44.41
2019-05-13T08:58:32.346Z,43.50
2019-05-13T09:01:02.493Z,42.95
2019-05-13T09:06:03.986Z,43.15
2019-05-13T09:08:34.198Z,44.25
2019-05-13T09:11:03.771Z,42.86
2019-05-13T09:13:33.664Z,43.03
2019-05-13T09:16:03.902Z,43.00
2019-05-13T09:18:33.513Z,42.46
2019-05-13T09:21:03.254Z,41.34
2019-05-13T09:23:33.115Z,41.65
2019-05-13T09:26:02.875Z,40.72
2019-05-13T09:28:32.750Z,40.61
2019-05-13T09:31:02.448Z,40.72
2019-05-13T09:33:32.787Z,40.37
2019-05-13T09:36:02.804Z,39.04
2019-05-13T09:38:32.785Z,37.15
2019-05-13T09:41:02.517Z,38.53
2019-05-13T09:43:32.157Z,37.81
2019-05-13T09:46:02.363Z,38.27
2019-05-13T09:48:32.229Z,39.12
2019-05-13T09:53:33.184Z,37.38
2019-05-13T09:56:02.792Z,36.46
2019-05-13T09:58:33.283Z,36.87
2019-05-13T10:01:03.132Z,35.98
2019-05-13T10:03:33.250Z,36.72
2019-05-13T10:06:02.966Z,34.94
2019-05-13T10:08:32.996Z,34.46
2019-05-13T10:11:02.693Z,34.98
2019-05-13T10:13:32.525Z,35.27
2019-05-13T10:16:02.198Z,33.35
2019-05-13T10:18:32.673Z,34.03
2019-05-13T10:21:03.659Z,33.99
2019-05-13T10:23:33.657Z,33.73
2019-05-13T10:26:07.677Z,34.43
2019-05-13T10:28:37.735Z,33.82
2019-05-13T10:31:08.061Z,33.75
2019-05-13T10:33:38.637Z,34.64
2019-05-13T10:36:08.437Z,34.11
2019-05-13T10:38:38.085Z,34.17
2019-05-13T10:41:07.733Z,33.79
2019-05-13T10:43:43.184Z,32.68
2019-05-13T10:46:08.626Z,34.04
2019-05-13T10:48:38.761Z,34.82
2019-05-13T10:51:08.359Z,33.64
2019-05-13T10:53:37.900Z,34.75
2019-05-13T10:56:07.647Z,34.24
2019-05-13T10:58:38.190Z,32.95
2019-05-13T11:01:07.985Z,33.71
2019-05-13T11:03:37.742Z,34.34
2019-05-13T11:06:07.449Z,34.51
2019-05-13T11:08:37.012Z,34.06
2019-05-13T11:11:12.903Z,33.35
2019-05-13T11:16:12.307Z,32.83
2019-05-13T11:18:41.887Z,33.43
2019-05-13T11:21:12.950Z,33.85
2019-05-13T11:23:42.897Z,32.79
2019-05-13T11:26:13.032Z,32.04
2019-05-13T11:28:43.103Z,31.95
2019-05-13T11:31:12.730Z,32.66
2019-05-13T11:33:42.654Z,33.00
2019-05-13T11:36:15.964Z,33.49
2019-05-13T11:38:43.585Z,33.17
2019-05-13T11:41:13.236Z,32.09
2019-05-13T11:43:43.197Z,31.93
2019-05-13T11:46:12.819Z,32.40
2019-05-13T11:48:42.766Z,31.77
2019-05-13T11:51:13.119Z,32.71
2019-05-13T11:53:47.084Z,33.97
2019-05-13T11:56:17.151Z,33.59
2019-05-13T11:58:46.797Z,32.37
2019-05-13T12:01:16.386Z,32.20
2019-05-13T12:03:45.927Z,31.92
2019-05-13T12:06:16.565Z,30.10
2019-05-13T12:08:50.821Z,29.21
2019-05-13T12:11:17.454Z,30.68
2019-05-13T12:13:46.996Z,30.25
2019-05-13T12:16:16.744Z,30.82
2019-05-13T12:18:46.416Z,32.30
2019-05-13T12:21:16.042Z,31.28
2019-05-13T12:23:45.620Z,31.38
2019-05-13T12:26:15.425Z,31.20
2019-05-13T12:28:45.321Z,31.30
2019-05-13T12:31:15.366Z,31.66
2019-05-13T12:33:44.985Z,31.43
2019-05-13T12:36:18.252Z,31.10
2019-05-13T12:38:46.137Z,31.07
2019-05-13T12:41:15.676Z,30.32
2019-05-13T12:43:45.668Z,30.81
2019-05-13T12:46:15.563Z,31.25
2019-05-13T12:48:45.108Z,31.49
2019-05-13T12:51:14.647Z,31.25
2019-05-13T12:53:45.503Z,31.36
2019-05-13T12:56:15.131Z,30.30
2019-05-13T12:58:44.729Z,29.35
2019-05-13T13:01:15.731Z,29.81
2019-05-13T13:03:45.427Z,29.74
2019-05-13T13:06:38.201Z,29.44
2019-05-13T13:08:49.274Z,30.01
2019-05-13T13:11:17.593Z,30.48
2019-05-13T13:13:59.329Z,30.76
2019-05-13T13:16:18.597Z,30.92
2019-05-13T13:18:48.158Z,30.25
2019-05-13T13:21:17.982Z,29.58
2019-05-13T13:23:48.570Z,29.56
2019-05-13T13:26:18.401Z,29.86
2019-05-13T13:28:47.973Z,29.77
2019-05-13T13:31:17.674Z,29.35
2019-05-13T13:33:47.281Z,29.25
2019-05-13T13:36:17.813Z,29.43
2019-05-13T13:38:47.357Z,29.23
2019-05-13T13:41:22.605Z,29.13
2019-05-13T13:43:53.496Z,29.13
2019-05-13T13:46:33.662Z,29.97
2019-05-13T13:48:55.211Z,29.49
2019-05-13T13:51:26.654Z,28.93
2019-05-13T13:53:56.713Z,29.38
2019-05-13T13:56:26.464Z,29.11
2019-05-13T13:58:56.013Z,29.36
2019-05-13T14:01:27.429Z,28.51
2019-05-13T14:03:56.974Z,27.12
2019-05-13T14:06:25.323Z,38.65
2019-05-13T14:06:32.715Z,43.26
2019-05-13T14:07:03.751Z,32.49
2019-05-13T14:07:22.838Z,26.31
2019-05-13T14:08:57.883Z,27.03
2019-05-13T14:11:27.446Z,27.34
2019-05-13T14:13:57.061Z,28.18
2019-05-13T14:16:32.562Z,28.24
2019-05-13T14:18:57.834Z,26.96
2019-05-13T14:21:27.407Z,27.04
2019-05-13T14:23:56.955Z,27.31
2019-05-13T14:26:26.881Z,27.73
2019-05-13T14:28:56.417Z,27.80
2019-05-13T14:31:25.965Z,28.04
2019-05-13T14:33:55.523Z,28.12
2019-05-13T14:36:25.085Z,27.43
2019-05-13T14:38:54.620Z,27.58
2019-05-13T14:41:24.553Z,28.04
2019-05-13T14:43:54.419Z,28.29
2019-05-13T14:46:35.371Z,28.81
2019-05-13T14:48:55.275Z,28.16
2019-05-13T14:51:24.854Z,28.64
2019-05-13T14:53:54.378Z,28.56
2019-05-13T14:56:23.990Z,28.91
2019-05-13T14:58:53.520Z,29.15
2019-05-13T15:01:23.086Z,29.33
2019-05-13T15:03:52.657Z,29.52
2019-05-13T15:06:22.382Z,29.31
2019-05-13T15:08:52.850Z,29.73
2019-05-13T15:11:22.479Z,29.33
2019-05-13T15:13:52.275Z,28.64
2019-05-13T15:16:22.693Z,29.03
2019-05-13T15:18:52.681Z,28.97
2019-05-13T15:21:22.379Z,28.88
2019-05-13T15:23:52.026Z,28.58
2019-05-13T15:26:22.391Z,28.58
2019-05-13T15:28:52.185Z,28.65
2019-05-13T15:31:22.261Z,28.44
2019-05-13T15:33:52.546Z,28.90
2019-05-13T15:36:22.812Z,28.28
2019-05-13T15:38:53.338Z,28.23
2019-05-13T15:41:24.107Z,28.28
2019-05-13T15:43:53.934Z,27.81
2019-05-13T15:46:23.537Z,27.92
2019-05-13T15:48:53.076Z,28.21
2019-05-13T15:51:22.651Z,27.74
2019-05-13T15:53:52.221Z,27.65
2019-05-13T15:56:22.764Z,27.47
2019-05-13T15:58:53.227Z,27.42
2019-05-13T16:01:23.207Z,27.44
2019-05-13T16:03:52.821Z,27.58
2019-05-13T16:06:22.415Z,27.71
2019-05-13T16:08:52.145Z,28.65
2019-05-13T16:11:22.099Z,28.65
2019-05-13T16:13:52.097Z,28.34
2019-05-13T16:16:22.281Z,28.49
2019-05-13T16:18:52.984Z,28.67
2019-05-13T16:21:22.534Z,28.61
2019-05-13T16:23:52.161Z,28.97
2019-05-13T16:26:22.705Z,29.50
2019-05-13T16:28:52.805Z,28.98
2019-05-13T16:31:22.578Z,28.74
2019-05-13T16:33:52.356Z,28.17
2019-05-13T16:36:22.221Z,28.14
2019-05-13T16:38:51.967Z,28.44
2019-05-13T16:41:22.201Z,28.39
2019-05-13T16:43:52.026Z,28.84
2019-05-13T16:46:21.600Z,29.18
2019-05-13T16:48:51.142Z,28.97
2019-05-13T16:51:21.567Z,29.17
2019-05-13T16:53:52.264Z,29.61
2019-05-13T16:56:27.729Z,29.25
2019-05-13T16:58:53.445Z,29.57
2019-05-13T17:01:23.047Z,29.01
2019-05-13T17:03:52.619Z,28.95
2019-05-13T17:06:22.204Z,28.29
2019-05-13T17:08:51.802Z,28.50
2019-05-13T17:11:21.419Z,28.76
2019-05-13T17:13:51.448Z,28.83
2019-05-13T17:16:21.350Z,28.64
2019-05-13T17:18:52.150Z,28.43
2019-05-13T17:21:21.758Z,28.66
2019-05-13T17:23:52.336Z,28.40
2019-05-13T17:26:22.402Z,28.40
2019-05-13T17:28:52.062Z,28.58
2019-05-13T17:31:21.939Z,28.92
2019-05-13T17:33:52.051Z,28.74
2019-05-13T17:36:21.858Z,28.74
2019-05-13T17:38:51.409Z,28.91
2019-05-13T17:41:21.378Z,28.99
2019-05-13T17:43:51.881Z,28.62
2019-05-13T17:46:22.026Z,28.76
2019-05-13T17:48:52.105Z,28.95
2019-05-13T17:51:22.500Z,29.13
2019-05-13T17:53:52.368Z,28.80
2019-05-13T17:56:22.264Z,28.89
2019-05-13T17:58:51.803Z,28.65
2019-05-13T18:01:21.430Z,28.87
2019-05-13T18:03:51.777Z,29.16
2019-05-13T18:06:21.474Z,29.49
2019-05-13T18:08:51.822Z,29.88
2019-05-13T18:11:22.036Z,30.16
2019-05-13T18:13:51.992Z,30.30
2019-05-13T18:16:21.835Z,30.57
2019-05-13T18:18:52.230Z,30.63
2019-05-13T18:21:26.314Z,31.12
2019-05-13T18:23:55.888Z,31.76
2019-05-13T18:26:25.437Z,32.13
2019-05-13T18:28:54.987Z,32.60
2019-05-13T18:31:25.075Z,32.84
2019-05-13T18:33:54.860Z,32.97
2019-05-13T18:36:24.403Z,33.17
2019-05-13T18:38:53.950Z,33.54
2019-05-13T18:41:23.496Z,33.90
2019-05-13T18:43:55.024Z,34.21
2019-05-13T18:46:25.426Z,34.43
2019-05-13T18:48:58.963Z,34.75
2019-05-13T18:51:26.335Z,34.88
2019-05-13T18:53:55.970Z,35.05
2019-05-13T18:56:25.511Z,35.31
2019-05-13T18:58:55.433Z,35.52
2019-05-13T19:01:25.205Z,35.78
2019-05-13T19:03:55.062Z,36.01
2019-05-13T19:06:24.622Z,36.18
2019-05-13T19:08:54.269Z,36.44
2019-05-13T19:11:23.877Z,36.66
2019-05-13T19:13:53.435Z,37.01
2019-05-13T19:16:23.003Z,37.40
2019-05-13T19:18:52.807Z,37.72
2019-05-13T19:21:22.353Z,37.96
2019-05-13T19:23:52.253Z,38.15
2019-05-13T19:26:21.943Z,38.05
2019-05-13T19:28:51.759Z,38.19
2019-05-13T19:31:22.048Z,38.26
2019-05-13T19:33:52.141Z,38.38
2019-05-13T19:36:21.765Z,38.72
2019-05-13T19:38:51.392Z,38.87
2019-05-13T19:41:22.248Z,38.92
2019-05-13T19:43:51.948Z,39.11
2019-05-13T19:46:21.599Z,39.21
2019-05-13T19:48:52.227Z,39.36
2019-05-13T19:51:22.001Z,39.53
2019-05-13T19:53:51.753Z,39.64
2019-05-13T19:56:21.576Z,39.79
2019-05-13T19:58:51.540Z,39.91
2019-05-13T20:01:21.772Z,40.05
2019-05-13T20:03:51.683Z,40.22
2019-05-13T20:06:21.474Z,40.40
2019-05-13T20:08:51.852Z,40.76
2019-05-13T20:11:23.322Z,41.07
2019-05-13T20:13:52.995Z,41.27
2019-05-13T20:16:22.728Z,41.41
2019-05-13T20:18:53.183Z,41.50
2019-05-13T20:21:24.367Z,41.70
2019-05-13T20:23:53.995Z,41.83
2019-05-13T20:26:23.633Z,42.10
2019-05-13T20:28:53.191Z,42.39
2019-05-13T20:31:23.174Z,42.44
2019-05-13T20:33:53.624Z,42.66
2019-05-13T20:36:24.038Z,42.74
2019-05-13T20:38:56.095Z,42.92
2019-05-13T20:41:27.331Z,43.10
2019-05-13T20:43:58.377Z,43.18
2019-05-13T20:46:28.939Z,43.26
2019-05-13T20:48:59.439Z,43.54
2019-05-13T20:51:31.294Z,43.72
2019-05-13T20:54:02.383Z,43.92
2019-05-13T20:56:32.789Z,44.07
2019-05-13T20:59:03.665Z,44.20
2019-05-13T21:01:34.736Z,44.22
2019-05-13T21:04:06.388Z,44.44
2019-05-13T21:06:37.464Z,44.70
2019-05-13T21:09:14.336Z,45.17
2019-05-13T21:11:41.863Z,45.32
2019-05-13T21:14:11.446Z,45.43
2019-05-13T21:16:41.873Z,45.64
2019-05-13T21:19:13.000Z,45.87
2019-05-13T21:21:44.197Z,46.03
2019-05-13T21:24:15.435Z,46.12
2019-05-13T21:26:47.212Z,46.25
2019-05-13T21:29:17.699Z,46.40
2019-05-13T21:31:48.936Z,46.62
2019-05-13T21:34:21.140Z,47.02
2019-05-13T21:36:52.412Z,47.39
2019-05-13T21:39:22.589Z,47.55
2019-05-13T21:41:53.497Z,47.77
2019-05-13T21:44:24.730Z,47.94
2019-05-13T21:46:54.394Z,48.17
2019-05-13T21:49:25.595Z,48.51
2019-05-13T21:51:55.938Z,48.83
2019-05-13T21:54:25.558Z,49.35
2019-05-13T21:56:56.776Z,49.48
2019-05-13T21:59:27.997Z,49.75
2019-05-13T22:02:01.500Z,50.06
2019-05-13T22:04:32.682Z,50.22
2019-05-13T22:07:03.807Z,50.42
2019-05-13T22:09:35.465Z,50.75
2019-05-13T22:12:07.541Z,50.96
2019-05-13T22:14:41.198Z,51.24
2019-05-13T22:17:12.458Z,51.20
2019-05-13T22:19:42.352Z,51.38
2019-05-13T22:22:14.105Z,51.47
2019-05-13T22:24:43.682Z,51.55
2019-05-13T22:27:15.000Z,51.53
2019-05-13T22:29:44.579Z,51.58
2019-05-13T22:32:14.176Z,51.67
2019-05-13T22:34:43.728Z,51.92
2019-05-13T22:37:13.351Z,52.01
2019-05-13T22:39:42.908Z,51.98
2019-05-13T22:42:12.657Z,51.92
2019-05-13T22:44:42.671Z,52.06
2019-05-13T22:47:13.441Z,52.30
2019-05-13T22:49:43.215Z,52.39
2019-05-13T22:52:12.866Z,52.45
2019-05-13T22:54:42.426Z,52.64
2019-05-13T22:57:12.151Z,53.05
2019-05-13T22:59:41.799Z,53.20
2019-05-13T23:02:11.372Z,53.21
2019-05-13T23:04:41.825Z,53.29
2019-05-13T23:07:11.936Z,53.38
2019-05-13T23:09:41.837Z,53.63
2019-05-13T23:12:12.329Z,53.77
2019-05-13T23:14:41.972Z,53.78
2019-05-13T23:17:12.522Z,53.95
2019-05-13T23:19:42.290Z,54.28
2019-05-13T23:22:12.184Z,54.40
2019-05-13T23:24:42.172Z,54.47
2019-05-13T23:27:11.712Z,54.60
2019-05-13T23:29:41.436Z,54.66
2019-05-13T23:32:12.082Z,54.78
2019-05-13T23:34:42.409Z,54.78
2019-05-13T23:37:12.182Z,54.82
2019-05-13T23:39:41.903Z,54.86
2019-05-13T23:42:12.160Z,54.74
2019-05-13T23:44:42.130Z,54.67
2019-05-13T23:47:11.808Z,54.80
2019-05-13T23:49:42.259Z,55.23
2019-05-13T23:52:12.047Z,55.44
2019-05-13T23:54:42.508Z,55.70
2019-05-13T23:57:12.238Z,56.17
2019-05-13T23:59:42.176Z,56.70
